createdAt,value
2016-10-11T00:00:54.316Z,1023.05
2016-10-11T00:01:54.398Z,1023.05
2016-10-11T00:02:54.345Z,1023.08
2016-10-11T00:03:54.367Z,1023.04
2016-10-11T00:04:54.386Z,1023.02
2016-10-11T00:05:54.402Z,1023.02
2016-10-11T00:06:54.426Z,1022.99
2016-10-11T00:07:54.449Z,1022.99
2016-10-11T00:08:54.463Z,1022.96
2016-10-11T00:09:54.484Z,1022.97
2016-10-11T00:10:54.499Z,1022.99
2016-10-11T00:11:54.517Z,1022.98
2016-10-11T00:12:54.537Z,1022.94
2016-10-11T00:13:54.556Z,1022.91
2016-10-11T00:14:54.636Z,1022.93
2016-10-11T00:15:54.594Z,1022.91
2016-10-11T00:16:54.610Z,1022.9
2016-10-11T00:17:54.626Z,1022.87
2016-10-11T00:18:54.645Z,1022.88
2016-10-11T00:19:54.669Z,1022.87
2016-10-11T00:20:54.687Z,1022.86
2016-10-11T00:21:54.703Z,1022.83
2016-10-11T00:22:54.727Z,1022.84
2016-10-11T00:23:54.748Z,1022.85
2016-10-11T00:24:54.767Z,1022.86
2016-10-11T00:25:54.777Z,1022.81
2016-10-11T00:26:54.796Z,1022.86
2016-10-11T00:27:54.818Z,1022.85
2016-10-11T00:28:54.838Z,1022.82
2016-10-11T00:29:54.855Z,1022.83
2016-10-11T00:30:54.879Z,1022.83
2016-10-11T00:31:54.898Z,1022.82
2016-10-11T00:32:54.908Z,1022.82
2016-10-11T00:33:54.927Z,1022.83
2016-10-11T00:34:54.944Z,1022.82
2016-10-11T00:35:54.966Z,1022.84
2016-10-11T00:36:54.985Z,1022.78
2016-10-11T00:37:55.006Z,1022.76
2016-10-11T00:38:55.030Z,1022.81
2016-10-11T00:39:55.036Z,1022.82
2016-10-11T00:40:55.059Z,1022.83
2016-10-11T00:41:55.078Z,1022.84
2016-10-11T00:42:55.097Z,1022.81
2016-10-11T00:43:55.120Z,1022.82
2016-10-11T00:44:55.140Z,1022.79
2016-10-11T00:45:55.157Z,1022.83
2016-10-11T00:46:55.168Z,1022.81
2016-10-11T00:47:55.187Z,1022.81
2016-10-11T00:48:55.209Z,1022.8
2016-10-11T00:49:55.226Z,1022.81
2016-10-11T00:50:55.245Z,1022.79
2016-10-11T00:51:55.266Z,1022.79
2016-10-11T00:52:55.287Z,1022.79
2016-10-11T00:53:55.309Z,1022.78
2016-10-11T00:54:55.325Z,1022.76
2016-10-11T00:55:55.338Z,1022.77
2016-10-11T00:56:55.357Z,1022.76
2016-10-11T00:57:55.376Z,1022.72
2016-10-11T00:58:55.398Z,1022.73
2016-10-11T00:59:55.418Z,1022.73
2016-10-11T01:00:55.433Z,1022.69
2016-10-11T01:01:55.450Z,1022.69
2016-10-11T01:02:55.469Z,1022.71
2016-10-11T01:03:55.490Z,1022.67
2016-10-11T01:04:55.504Z,1022.65
2016-10-11T01:05:55.527Z,1022.63
2016-10-11T01:06:55.549Z,1022.63
2016-10-11T01:07:55.569Z,1022.59
2016-10-11T01:08:55.582Z,1022.6
2016-10-11T01:09:55.603Z,1022.61
2016-10-11T01:10:55.619Z,1022.62
2016-10-11T01:11:55.636Z,1022.57
2016-10-11T01:12:55.658Z,1022.61
2016-10-11T01:13:55.683Z,1022.59
2016-10-11T01:14:55.701Z,1022.53
2016-10-11T01:15:55.719Z,1022.52
2016-10-11T01:16:55.732Z,1022.52
2016-10-11T01:17:55.756Z,1022.49
2016-10-11T01:18:55.770Z,1022.5
2016-10-11T01:19:55.786Z,1022.48
2016-10-11T01:20:55.809Z,1022.45
2016-10-11T01:21:55.826Z,1022.5
2016-10-11T01:22:55.850Z,1022.49
2016-10-11T01:23:55.863Z,1022.5
2016-10-11T01:24:55.888Z,1022.49
2016-10-11T01:25:55.906Z,1022.51
2016-10-11T01:26:55.921Z,1022.48
2016-10-11T01:27:55.940Z,1022.49
2016-10-11T01:28:55.961Z,1022.47
2016-10-11T01:29:55.979Z,1022.47
2016-10-11T01:30:56.011Z,1022.48
2016-10-11T01:31:56.020Z,1022.49
2016-10-11T01:32:56.039Z,1022.47
2016-10-11T01:33:56.060Z,1022.49
2016-10-11T01:34:56.070Z,1022.47
2016-10-11T01:35:56.087Z,1022.42
2016-10-11T01:36:56.110Z,1022.47
2016-10-11T01:37:56.129Z,1022.44
2016-10-11T01:38:56.145Z,1022.43
2016-10-11T01:39:56.167Z,1022.46
2016-10-11T01:40:56.188Z,1022.45
2016-10-11T01:41:56.216Z,1022.45
2016-10-11T01:42:56.219Z,1022.43
2016-10-11T01:43:56.253Z,1022.48
2016-10-11T01:44:56.261Z,1022.42
2016-10-11T01:45:56.331Z,1022.39
2016-10-11T01:46:56.299Z,1022.39
2016-10-11T01:47:56.315Z,1022.39
2016-10-11T01:48:56.334Z,1022.41
2016-10-11T01:49:56.353Z,1022.41
2016-10-11T01:50:56.373Z,1022.39
2016-10-11T01:51:56.397Z,1022.42
2016-10-11T01:52:56.422Z,1022.39
2016-10-11T01:53:56.431Z,1022.43
2016-10-11T01:54:56.456Z,1022.42
2016-10-11T01:55:56.472Z,1022.38
2016-10-11T01:56:56.488Z,1022.4
2016-10-11T01:57:56.504Z,1022.39
2016-10-11T01:58:56.578Z,1022.38
2016-10-11T01:59:56.546Z,1022.4
2016-10-11T02:00:56.562Z,1022.39
2016-10-11T02:01:56.586Z,1022.4
2016-10-11T02:02:56.603Z,1022.37
2016-10-11T02:03:56.619Z,1022.35
2016-10-11T02:04:56.642Z,1022.33
2016-10-11T02:05:56.658Z,1022.35
2016-10-11T02:06:56.682Z,1022.33
2016-10-11T02:07:56.701Z,1022.34
2016-10-11T02:08:56.716Z,1022.27
2016-10-11T02:09:56.831Z,1022.33
2016-10-11T02:10:56.756Z,1022.28
2016-10-11T02:11:56.772Z,1022.27
2016-10-11T02:12:56.789Z,1022.3
2016-10-11T02:13:56.812Z,1022.28
2016-10-11T02:14:56.825Z,1022.3
2016-10-11T02:15:56.844Z,1022.25
2016-10-11T02:16:56.867Z,1022.22
2016-10-11T02:17:56.890Z,1022.23
2016-10-11T02:18:56.901Z,1022.24
2016-10-11T02:19:56.921Z,1022.2
2016-10-11T02:20:56.940Z,1022.17
2016-10-11T02:21:56.959Z,1022.18
2016-10-11T02:22:56.981Z,1022.16
2016-10-11T02:23:57.003Z,1022.12
2016-10-11T02:24:57.017Z,1022.14
2016-10-11T02:25:57.036Z,1022.16
2016-10-11T02:26:57.053Z,1022.15
2016-10-11T02:27:57.074Z,1022.17
2016-10-11T02:28:57.094Z,1022.17
2016-10-11T02:29:57.115Z,1022.15
2016-10-11T02:30:57.134Z,1022.16
2016-10-11T02:31:57.151Z,1022.13
2016-10-11T02:32:57.168Z,1022.13
2016-10-11T02:33:57.187Z,1022.11
2016-10-11T02:34:57.212Z,1022.11
2016-10-11T02:35:57.228Z,1022.13
2016-10-11T02:36:57.241Z,1022.11
2016-10-11T02:37:57.260Z,1022.15
2016-10-11T02:38:57.283Z,1022.1
2016-10-11T02:39:57.300Z,1022.11
2016-10-11T02:40:57.321Z,1022.08
2016-10-11T02:41:57.341Z,1022.11
2016-10-11T02:42:57.361Z,1022.11
2016-10-11T02:43:57.382Z,1022.12
2016-10-11T02:44:57.398Z,1022.11
2016-10-11T02:45:57.421Z,1022.08
2016-10-11T02:46:57.440Z,1022.09
2016-10-11T02:47:57.462Z,1022.09
2016-10-11T02:48:57.472Z,1022.11
2016-10-11T02:49:57.486Z,1022.06
2016-10-11T02:50:57.510Z,1022.12
2016-10-11T02:51:57.529Z,1022.07
2016-10-11T02:52:57.558Z,1022.11
2016-10-11T02:53:57.571Z,1022.1
2016-10-11T02:54:57.589Z,1022.09
2016-10-11T02:55:57.603Z,1022.08
2016-10-11T02:56:57.622Z,1022.1
2016-10-11T02:57:57.641Z,1022.1
2016-10-11T02:58:57.670Z,1022.11
2016-10-11T02:59:57.680Z,1022.08
2016-10-11T03:00:57.707Z,1022.06
2016-10-11T03:01:57.722Z,1022.05
2016-10-11T03:02:57.741Z,1022.03
2016-10-11T03:03:57.754Z,1022.05
2016-10-11T03:04:57.777Z,1022.04
2016-10-11T03:05:57.801Z,1022.07
2016-10-11T03:06:57.813Z,1022.04
2016-10-11T03:07:57.830Z,1022.06
2016-10-11T03:08:57.848Z,1022.02
2016-10-11T03:09:57.872Z,1022.05
2016-10-11T03:10:57.893Z,1022.03
2016-10-11T03:11:57.913Z,1022.05
2016-10-11T03:12:57.930Z,1022.03
2016-10-11T03:13:57.962Z,1022.02
2016-10-11T03:14:58.061Z,1022.07
2016-10-11T03:15:57.981Z,1022.05
2016-10-11T03:16:58.001Z,1022.04
2016-10-11T03:17:58.021Z,1022.06
2016-10-11T03:18:58.048Z,1022.07
2016-10-11T03:19:58.058Z,1022.03
2016-10-11T03:20:58.080Z,1022.07
2016-10-11T03:21:58.093Z,1022.06
2016-10-11T03:22:58.112Z,1022.04
2016-10-11T03:23:58.131Z,1022.06
2016-10-11T03:24:58.162Z,1022.07
2016-10-11T03:25:58.173Z,1022.04
2016-10-11T03:26:58.189Z,1022.06
2016-10-11T03:27:58.245Z,1022.08
2016-10-11T03:28:58.231Z,1022.05
2016-10-11T03:29:58.252Z,1022.08
2016-10-11T03:30:58.266Z,1022.07
2016-10-11T03:31:58.285Z,1022.06
2016-10-11T03:32:58.308Z,1022.04
2016-10-11T03:33:58.332Z,1022.07
2016-10-11T03:34:58.348Z,1022.05
2016-10-11T03:35:58.361Z,1022.06
2016-10-11T03:36:58.378Z,1022.06
2016-10-11T03:37:58.404Z,1022.1
2016-10-11T03:38:58.522Z,1022.06
2016-10-11T03:39:58.448Z,1022.09
2016-10-11T03:40:58.511Z,1022.08
2016-10-11T03:41:58.477Z,1022.11
2016-10-11T03:42:58.499Z,1022.08
2016-10-11T03:43:58.522Z,1022.1
2016-10-11T03:44:58.535Z,1022.11
2016-10-11T03:45:58.551Z,1022.14
2016-10-11T03:46:58.570Z,1022.11
2016-10-11T03:47:58.589Z,1022.13
2016-10-11T03:48:58.608Z,1022.11
2016-10-11T03:49:58.628Z,1022.13
2016-10-11T03:50:58.647Z,1022.11
2016-10-11T03:51:58.707Z,1022.11
2016-10-11T03:52:58.690Z,1022.12
2016-10-11T03:53:58.709Z,1022.15
2016-10-11T03:54:58.725Z,1022.11
2016-10-11T03:55:58.747Z,1022.12
2016-10-11T03:56:58.762Z,1022.09
2016-10-11T03:57:58.778Z,1022.12
2016-10-11T03:58:58.797Z,1022.1
2016-10-11T03:59:58.819Z,1022.14
2016-10-11T04:00:58.837Z,1022.1
2016-10-11T04:01:58.859Z,1022.11
2016-10-11T04:02:58.891Z,1022.12
2016-10-11T04:03:58.890Z,1022.11
2016-10-11T04:04:58.909Z,1022.08
2016-10-11T04:05:58.936Z,1022.11
2016-10-11T04:06:58.948Z,1022.11
2016-10-11T04:07:58.966Z,1022.1
2016-10-11T04:08:58.986Z,1022.09
2016-10-11T04:09:59.004Z,1022.12
2016-10-11T04:10:59.021Z,1022.12
2016-10-11T04:11:59.043Z,1022.1
2016-10-11T04:12:59.062Z,1022.1
2016-10-11T04:13:59.084Z,1022.1
2016-10-11T04:14:59.103Z,1022.09
2016-10-11T04:15:59.120Z,1022.08
2016-10-11T04:16:59.184Z,1022.11
2016-10-11T04:17:59.154Z,1022.12
2016-10-11T04:18:59.178Z,1022.13
2016-10-11T04:19:59.199Z,1022.03
2016-10-11T04:20:59.216Z,1022.07
2016-10-11T04:21:59.228Z,1022.08
2016-10-11T04:22:59.258Z,1022.09
2016-10-11T04:23:59.267Z,1022.08
2016-10-11T04:24:59.291Z,1022.06
2016-10-11T04:25:59.309Z,1022.06
2016-10-11T04:26:59.322Z,1022.04
2016-10-11T04:27:59.347Z,1022.07
2016-10-11T04:28:59.363Z,1022.08
2016-10-11T04:29:59.387Z,1022.05
2016-10-11T04:30:59.401Z,1022.04
2016-10-11T04:31:59.418Z,1022.05
2016-10-11T04:32:59.440Z,1022.04
2016-10-11T04:33:59.459Z,1022.04
2016-10-11T04:34:59.478Z,1022.08
2016-10-11T04:35:59.494Z,1022.05
2016-10-11T04:36:59.510Z,1022.05
2016-10-11T04:37:59.529Z,1022.07
2016-10-11T04:38:59.551Z,1022.05
2016-10-11T04:39:59.569Z,1022.06
2016-10-11T04:40:59.587Z,1022.09
2016-10-11T04:41:59.616Z,1022.07
2016-10-11T04:42:59.628Z,1022.07
2016-10-11T04:43:59.649Z,1022.1
2016-10-11T04:44:59.657Z,1022.13
2016-10-11T04:45:59.679Z,1022.12
2016-10-11T04:46:59.747Z,1022.13
2016-10-11T04:47:59.727Z,1022.17
2016-10-11T04:48:59.736Z,1022.1
2016-10-11T04:49:59.761Z,1022.12
2016-10-11T04:50:59.777Z,1022.14
2016-10-11T04:51:59.801Z,1022.12
2016-10-11T04:52:59.808Z,1022.1
2016-10-11T04:53:59.827Z,1022.15
2016-10-11T04:54:59.851Z,1022.18
2016-10-11T04:55:59.862Z,1022.14
2016-10-11T04:57:00.030Z,1022.18
2016-10-11T04:57:59.908Z,1022.16
2016-10-11T04:58:59.920Z,1022.18
2016-10-11T04:59:59.942Z,1022.19
2016-10-11T05:00:59.964Z,1022.19
2016-10-11T05:02:00.030Z,1022.2
2016-10-11T05:02:59.996Z,1022.2
2016-10-11T05:04:00.020Z,1022.21
2016-10-11T05:05:00.035Z,1022.22
2016-10-11T05:06:00.059Z,1022.22
2016-10-11T05:07:00.067Z,1022.24
2016-10-11T05:08:00.094Z,1022.25
2016-10-11T05:09:00.108Z,1022.27
2016-10-11T05:10:00.241Z,1022.28
2016-10-11T05:11:00.144Z,1022.3
2016-10-11T05:12:00.262Z,1022.3
2016-10-11T05:13:00.184Z,1022.31
2016-10-11T05:14:00.198Z,1022.3
2016-10-11T05:15:00.217Z,1022.34
2016-10-11T05:16:00.233Z,1022.29
2016-10-11T05:17:00.256Z,1022.35
2016-10-11T05:18:00.268Z,1022.34
2016-10-11T05:19:00.289Z,1022.36
2016-10-11T05:20:00.314Z,1022.33
2016-10-11T05:21:00.429Z,1022.31
2016-10-11T05:22:00.337Z,1022.32
2016-10-11T05:23:00.439Z,1022.33
2016-10-11T05:24:00.378Z,1022.38
2016-10-11T05:25:00.400Z,1022.35
2016-10-11T05:26:00.421Z,1022.34
2016-10-11T05:27:00.440Z,1022.36
2016-10-11T05:28:00.456Z,1022.36
2016-10-11T05:29:00.481Z,1022.37
2016-10-11T05:30:00.489Z,1022.36
2016-10-11T05:31:00.505Z,1022.4
2016-10-11T05:32:00.528Z,1022.45
2016-10-11T05:33:00.550Z,1022.39
2016-10-11T05:34:00.779Z,1022.41
2016-10-11T05:35:00.579Z,1022.42
2016-10-11T05:36:00.646Z,1022.47
2016-10-11T05:37:00.617Z,1022.45
2016-10-11T05:38:00.640Z,1022.48
2016-10-11T05:39:00.653Z,1022.48
2016-10-11T05:40:00.673Z,1022.47
2016-10-11T05:41:00.690Z,1022.48
2016-10-11T05:42:00.708Z,1022.46
2016-10-11T05:43:00.731Z,1022.47
2016-10-11T05:44:00.741Z,1022.46
2016-10-11T05:45:00.769Z,1022.46
2016-10-11T05:46:00.788Z,1022.5
2016-10-11T05:47:00.801Z,1022.45
2016-10-11T05:48:00.815Z,1022.52
2016-10-11T05:49:00.841Z,1022.53
2016-10-11T05:50:00.854Z,1022.52
2016-10-11T05:51:00.872Z,1022.54
2016-10-11T05:52:00.891Z,1022.51
2016-10-11T05:53:00.902Z,1022.54
2016-10-11T05:54:00.928Z,1022.55
2016-10-11T05:55:00.947Z,1022.57
2016-10-11T05:56:00.969Z,1022.59
2016-10-11T05:57:00.978Z,1022.57
2016-10-11T05:58:01.000Z,1022.6
2016-10-11T05:59:01.016Z,1022.62
2016-10-11T06:00:01.038Z,1022.62
2016-10-11T06:01:01.057Z,1022.61
2016-10-11T06:02:01.070Z,1022.59
2016-10-11T06:03:01.089Z,1022.65
2016-10-11T06:04:01.104Z,1022.66
2016-10-11T06:05:01.120Z,1022.62
2016-10-11T06:06:01.151Z,1022.68
2016-10-11T06:07:01.158Z,1022.67
2016-10-11T06:08:01.176Z,1022.7
2016-10-11T06:09:01.198Z,1022.69
2016-10-11T06:10:01.216Z,1022.69
2016-10-11T06:11:01.231Z,1022.69
2016-10-11T06:12:01.250Z,1022.72
2016-10-11T06:13:01.269Z,1022.72
2016-10-11T06:14:01.288Z,1022.73
2016-10-11T06:15:01.308Z,1022.75
2016-10-11T06:16:01.316Z,1022.75
2016-10-11T06:17:01.345Z,1022.72
2016-10-11T06:18:01.355Z,1022.75
2016-10-11T06:19:01.381Z,1022.76
2016-10-11T06:20:01.392Z,1022.76
2016-10-11T06:21:01.414Z,1022.77
2016-10-11T06:22:01.430Z,1022.77
2016-10-11T06:23:01.451Z,1022.77
2016-10-11T06:24:01.463Z,1022.8
2016-10-11T06:25:01.489Z,1022.8
2016-10-11T06:26:01.507Z,1022.82
2016-10-11T06:27:01.523Z,1022.81
2016-10-11T06:28:01.541Z,1022.81
2016-10-11T06:29:01.560Z,1022.82
2016-10-11T06:30:01.579Z,1022.83
2016-10-11T06:31:01.597Z,1022.76
2016-10-11T06:32:01.612Z,1022.82
2016-10-11T06:33:01.628Z,1022.77
2016-10-11T06:34:01.645Z,1022.78
2016-10-11T06:35:01.669Z,1022.82
2016-10-11T06:36:01.688Z,1022.8
2016-10-11T06:37:01.702Z,1022.84
2016-10-11T06:38:01.724Z,1022.82
2016-10-11T06:39:01.758Z,1022.78
2016-10-11T06:40:01.757Z,1022.82
2016-10-11T06:41:01.776Z,1022.81
2016-10-11T06:42:01.796Z,1022.78
2016-10-11T06:43:01.816Z,1022.8
2016-10-11T06:44:01.830Z,1022.82
2016-10-11T06:45:01.847Z,1022.82
2016-10-11T06:46:01.869Z,1022.84
2016-10-11T06:47:01.886Z,1022.86
2016-10-11T06:48:01.906Z,1022.83
2016-10-11T06:49:01.926Z,1022.82
2016-10-11T06:50:01.947Z,1022.84
2016-10-11T06:51:01.963Z,1022.82
2016-10-11T06:52:01.987Z,1022.79
2016-10-11T06:53:01.994Z,1022.74
2016-10-11T06:54:02.108Z,1022.77
2016-10-11T06:55:02.037Z,1022.77
2016-10-11T06:56:02.064Z,1022.8
2016-10-11T06:57:02.075Z,1022.83
2016-10-11T06:58:02.137Z,1022.74
2016-10-11T06:59:02.109Z,1022.79
2016-10-11T07:00:02.131Z,1022.76
2016-10-11T07:01:02.140Z,1022.82
2016-10-11T07:02:02.165Z,1022.8
2016-10-11T07:03:02.181Z,1022.8
2016-10-11T07:04:02.198Z,1022.81
2016-10-11T07:05:02.219Z,1022.8
2016-10-11T07:06:02.236Z,1022.83
2016-10-11T07:07:02.257Z,1022.85
2016-10-11T07:08:02.280Z,1022.85
2016-10-11T07:09:02.342Z,1022.85
2016-10-11T07:10:02.310Z,1022.86
2016-10-11T07:11:02.339Z,1022.9
2016-10-11T07:12:02.363Z,1022.89
2016-10-11T07:13:02.374Z,1022.87
2016-10-11T07:14:02.387Z,1022.92
2016-10-11T07:15:02.408Z,1022.91
2016-10-11T07:16:02.426Z,1022.92
2016-10-11T07:17:02.441Z,1022.94
2016-10-11T07:18:02.464Z,1022.91
2016-10-11T07:19:02.476Z,1022.91
2016-10-11T07:20:02.507Z,1022.92
2016-10-11T07:21:02.529Z,1022.9
2016-10-11T07:22:02.539Z,1022.9
2016-10-11T07:23:02.553Z,1022.91
2016-10-11T07:24:02.580Z,1022.92
2016-10-11T07:25:02.592Z,1022.89
2016-10-11T07:26:02.625Z,1022.91
2016-10-11T07:27:02.635Z,1022.88
2016-10-11T07:28:02.656Z,1022.94
2016-10-11T07:29:02.665Z,1022.89
2016-10-11T07:30:02.699Z,1022.9
2016-10-11T07:31:02.718Z,1022.93
2016-10-11T07:32:02.726Z,1022.94
2016-10-11T07:33:02.801Z,1022.91
2016-10-11T07:34:02.766Z,1022.91
2016-10-11T07:35:02.785Z,1022.93
2016-10-11T07:36:02.797Z,1022.95
2016-10-11T07:37:02.830Z,1022.98
2016-10-11T07:38:02.843Z,1022.93
2016-10-11T07:39:02.865Z,1022.94
2016-10-11T07:40:02.891Z,1022.96
2016-10-11T07:41:02.907Z,1022.97
2016-10-11T07:42:02.917Z,1022.97
2016-10-11T07:43:02.937Z,1022.98
2016-10-11T07:44:02.957Z,1022.99
2016-10-11T07:45:02.990Z,1022.99
2016-10-11T07:46:03.000Z,1023.03
2016-10-11T07:47:03.013Z,1022.97
2016-10-11T07:48:03.037Z,1022.99
2016-10-11T07:49:03.314Z,1023.02
2016-10-11T07:50:03.076Z,1023.01
2016-10-11T07:51:03.104Z,1023.02
2016-10-11T07:52:03.119Z,1023.04
2016-10-11T07:53:03.135Z,1023.11
2016-10-11T07:54:03.148Z,1023.09
2016-10-11T07:55:03.168Z,1023.06
2016-10-11T07:56:03.189Z,1023.09
2016-10-11T07:57:03.203Z,1023.04
2016-10-11T07:58:03.226Z,1023.08
2016-10-11T07:59:03.248Z,1023.08
2016-10-11T08:00:03.268Z,1023.09
2016-10-11T08:01:03.287Z,1023.11
2016-10-11T08:02:03.307Z,1023.09
2016-10-11T08:03:03.322Z,1023.13
2016-10-11T08:04:03.349Z,1023.18
2016-10-11T08:05:03.378Z,1023.15
2016-10-11T08:06:03.380Z,1023.13
2016-10-11T08:07:03.408Z,1023.18
2016-10-11T08:08:03.438Z,1023.19
2016-10-11T08:09:03.446Z,1023.19
2016-10-11T08:10:03.468Z,1023.18
2016-10-11T08:11:03.484Z,1023.18
2016-10-11T08:12:03.501Z,1023.21
2016-10-11T08:13:03.529Z,1023.24
2016-10-11T08:14:03.545Z,1023.22
2016-10-11T08:15:03.576Z,1023.24
2016-10-11T08:16:03.583Z,1023.19
2016-10-11T08:17:03.597Z,1023.22
2016-10-11T08:18:03.617Z,1023.23
2016-10-11T08:19:03.642Z,1023.21
2016-10-11T08:20:03.668Z,1023.2
2016-10-11T08:21:03.678Z,1023.18
2016-10-11T08:22:03.719Z,1023.2
2016-10-11T08:23:03.767Z,1023.2
2016-10-11T08:24:03.735Z,1023.17
2016-10-11T08:25:03.758Z,1023.21
2016-10-11T08:26:03.786Z,1023.18
2016-10-11T08:27:03.807Z,1023.17
2016-10-11T08:28:03.870Z,1023.13
2016-10-11T08:29:03.838Z,1023.21
2016-10-11T08:30:03.871Z,1023.17
2016-10-11T08:31:03.881Z,1023.15
2016-10-11T08:32:03.903Z,1023.19
2016-10-11T08:33:03.977Z,1023.22
2016-10-11T08:34:03.937Z,1023.18
2016-10-11T08:35:03.971Z,1023.19
2016-10-11T08:36:03.999Z,1023.19
2016-10-11T08:37:03.998Z,1023.21
2016-10-11T08:38:04.028Z,1023.18
2016-10-11T08:39:04.249Z,1023.18
2016-10-11T08:40:04.061Z,1023.15
2016-10-11T08:41:04.078Z,1023.17
2016-10-11T08:42:04.101Z,1023.12
2016-10-11T08:43:04.121Z,1023.17
2016-10-11T08:44:04.139Z,1023.16
2016-10-11T08:45:04.158Z,1023.17
2016-10-11T08:46:04.182Z,1023.14
2016-10-11T08:47:04.212Z,1023.19
2016-10-11T08:48:04.271Z,1023.2
2016-10-11T08:49:04.243Z,1023.2
2016-10-11T08:50:04.262Z,1023.25
2016-10-11T08:51:04.281Z,1023.23
2016-10-11T08:52:04.299Z,1023.26
2016-10-11T08:53:04.369Z,1023.28
2016-10-11T08:54:04.337Z,1023.31
2016-10-11T08:55:04.361Z,1023.29
2016-10-11T08:56:04.381Z,1023.32
2016-10-11T08:57:04.398Z,1023.3
2016-10-11T08:58:04.419Z,1023.32
2016-10-11T08:59:04.440Z,1023.32
2016-10-11T09:00:04.527Z,1023.31
2016-10-11T09:01:04.480Z,1023.32
2016-10-11T09:02:04.507Z,1023.35
2016-10-11T09:03:04.520Z,1023.32
2016-10-11T09:04:04.537Z,1023.31
2016-10-11T09:05:04.560Z,1023.31
2016-10-11T09:06:04.582Z,1023.32
2016-10-11T09:07:04.600Z,1023.34
2016-10-11T09:08:04.629Z,1023.33
2016-10-11T09:09:04.638Z,1023.31
2016-10-11T09:10:04.664Z,1023.31
2016-10-11T09:11:04.683Z,1023.28
2016-10-11T09:12:04.701Z,1023.29
2016-10-11T09:13:04.837Z,1023.32
2016-10-11T09:14:04.740Z,1023.27
2016-10-11T09:15:04.813Z,1023.31
2016-10-11T09:16:04.777Z,1023.32
2016-10-11T09:17:04.801Z,1023.34
2016-10-11T09:18:04.820Z,1023.32
2016-10-11T09:19:04.847Z,1023.31
2016-10-11T09:20:04.858Z,1023.31
2016-10-11T09:21:04.879Z,1023.31
2016-10-11T09:22:04.898Z,1023.3
2016-10-11T09:23:04.922Z,1023.3
2016-10-11T09:24:04.937Z,1023.31
2016-10-11T09:25:04.956Z,1023.29
2016-10-11T09:26:05.004Z,1023.33
2016-10-11T09:27:05.002Z,1023.29
2016-10-11T09:28:05.015Z,1023.33
2016-10-11T09:29:05.038Z,1023.29
2016-10-11T09:30:05.068Z,1023.31
2016-10-11T09:31:05.076Z,1023.26
2016-10-11T09:32:05.100Z,1023.29
2016-10-11T09:33:05.113Z,1023.31
2016-10-11T09:34:05.137Z,1023.31
2016-10-11T09:35:05.157Z,1023.3
2016-10-11T09:36:05.181Z,1023.31
2016-10-11T09:37:05.196Z,1023.3
2016-10-11T09:38:05.218Z,1023.33
2016-10-11T09:39:05.239Z,1023.32
2016-10-11T09:40:05.256Z,1023.29
2016-10-11T09:41:05.282Z,1023.28
2016-10-11T09:42:05.297Z,1023.28
2016-10-11T09:43:05.322Z,1023.28
2016-10-11T09:44:05.333Z,1023.28
2016-10-11T09:45:05.361Z,1023.26
2016-10-11T09:46:05.375Z,1023.3
2016-10-11T09:47:05.400Z,1023.28
2016-10-11T09:48:05.420Z,1023.25
2016-10-11T09:49:05.434Z,1023.24
2016-10-11T09:50:05.449Z,1023.27
2016-10-11T09:51:05.476Z,1023.27
2016-10-11T09:52:05.498Z,1023.28
2016-10-11T09:53:05.518Z,1023.24
2016-10-11T09:54:05.532Z,1023.26
2016-10-11T09:55:05.553Z,1023.23
2016-10-11T09:56:05.567Z,1023.23
2016-10-11T09:57:05.598Z,1023.22
2016-10-11T09:58:05.617Z,1023.23
2016-10-11T09:59:05.632Z,1023.22
2016-10-11T10:00:05.651Z,1023.21
2016-10-11T10:01:05.732Z,1023.25
2016-10-11T10:02:05.700Z,1023.24
2016-10-11T10:03:05.710Z,1023.2
2016-10-11T10:04:05.731Z,1023.17
2016-10-11T10:05:05.749Z,1023.17
2016-10-11T10:06:05.824Z,1023.17
2016-10-11T10:07:05.790Z,1023.17
2016-10-11T10:08:05.805Z,1023.16
2016-10-11T10:09:05.830Z,1023.18
2016-10-11T10:10:05.851Z,1023.16
2016-10-11T10:11:05.883Z,1023.16
2016-10-11T10:12:05.889Z,1023.19
2016-10-11T10:13:05.909Z,1023.17
2016-10-11T10:14:05.932Z,1023.15
2016-10-11T10:15:05.953Z,1023.14
2016-10-11T10:16:05.973Z,1023.13
2016-10-11T10:17:05.992Z,1023.1
2016-10-11T10:18:06.014Z,1023.15
2016-10-11T10:19:06.032Z,1023.08
2016-10-11T10:20:06.046Z,1023.11
2016-10-11T10:21:06.072Z,1023.07
2016-10-11T10:22:06.085Z,1023.04
2016-10-11T10:23:06.112Z,1023.06
2016-10-11T10:24:06.129Z,1023.06
2016-10-11T10:25:06.148Z,1023.07
2016-10-11T10:26:06.168Z,1023.06
2016-10-11T10:27:06.193Z,1023.03
2016-10-11T10:28:06.207Z,1023.02
2016-10-11T10:29:06.221Z,1023
2016-10-11T10:30:06.245Z,1022.99
2016-10-11T10:31:06.271Z,1023.03
2016-10-11T10:32:06.281Z,1022.99
2016-10-11T10:33:06.301Z,1023.03
2016-10-11T10:34:06.320Z,1023.02
2016-10-11T10:35:06.339Z,1022.97
2016-10-11T10:36:06.372Z,1023.02
2016-10-11T10:37:06.386Z,1023.01
2016-10-11T10:38:06.408Z,1023.02
2016-10-11T10:39:06.425Z,1023.01
2016-10-11T10:40:06.443Z,1023.02
2016-10-11T10:41:06.461Z,1023.02
2016-10-11T10:42:06.544Z,1023.03
2016-10-11T10:43:06.501Z,1023.02
2016-10-11T10:44:06.524Z,1023
2016-10-11T10:45:06.788Z,1023.01
2016-10-11T10:46:06.861Z,1023.01
2016-10-11T10:47:07.032Z,1023.03
2016-10-11T10:48:06.802Z,1023.01
2016-10-11T10:49:07.023Z,1023.02
2016-10-11T10:50:06.642Z,1023.01
2016-10-11T10:51:07.009Z,1023.02
2016-10-11T10:52:06.890Z,1023.02
2016-10-11T10:53:07.003Z,1023
2016-10-11T10:54:06.867Z,1023.01
2016-10-11T10:55:07.052Z,1022.98
2016-10-11T10:56:06.906Z,1022.97
2016-10-11T10:57:07.028Z,1022.98
2016-10-11T10:58:06.893Z,1023.02
2016-10-11T10:59:07.114Z,1023.04
2016-10-11T11:00:06.890Z,1023.02
2016-10-11T11:01:07.002Z,1023.01
2016-10-11T11:02:06.876Z,1022.99
2016-10-11T11:03:06.998Z,1023
2016-10-11T11:04:06.964Z,1022.95
2016-10-11T11:05:06.927Z,1022.95
2016-10-11T11:06:07.008Z,1022.97
2016-10-11T11:07:06.975Z,1022.98
2016-10-11T11:08:07.201Z,1022.92
2016-10-11T11:09:07.013Z,1022.95
2016-10-11T11:10:07.181Z,1022.98
2016-10-11T11:11:07.058Z,1022.96
2016-10-11T11:12:07.220Z,1022.96
2016-10-11T11:13:07.091Z,1022.97
2016-10-11T11:14:07.243Z,1022.96
2016-10-11T11:15:07.733Z,1022.95
2016-10-11T11:16:07.204Z,1022.87
2016-10-11T11:17:07.171Z,1022.94
2016-10-11T11:18:07.197Z,1022.9
2016-10-11T11:19:07.824Z,1022.91
2016-10-11T11:20:07.234Z,1022.9
2016-10-11T11:21:07.258Z,1022.86
2016-10-11T11:22:07.272Z,1022.87
2016-10-11T11:23:07.290Z,1022.9
2016-10-11T11:24:07.320Z,1022.86
2016-10-11T11:25:07.332Z,1022.84
2016-10-11T11:26:07.353Z,1022.84
2016-10-11T11:27:07.371Z,1022.86
2016-10-11T11:28:07.391Z,1022.85
2016-10-11T11:29:07.407Z,1022.83
2016-10-11T11:30:07.433Z,1022.83
2016-10-11T11:31:07.462Z,1022.87
2016-10-11T11:32:08.031Z,1022.82
2016-10-11T11:33:07.489Z,1022.83
2016-10-11T11:34:07.515Z,1022.87
2016-10-11T11:35:07.532Z,1022.9
2016-10-11T11:36:07.549Z,1022.92
2016-10-11T11:37:07.577Z,1022.89
2016-10-11T11:38:07.591Z,1022.85
2016-10-11T11:39:07.622Z,1022.86
2016-10-11T11:40:07.630Z,1022.88
2016-10-11T11:41:07.663Z,1022.89
2016-10-11T11:42:07.673Z,1022.87
2016-10-11T11:43:07.699Z,1022.88
2016-10-11T11:44:07.724Z,1022.9
2016-10-11T11:45:07.747Z,1022.87
2016-10-11T11:46:07.761Z,1022.85
2016-10-11T11:47:07.779Z,1022.81
2016-10-11T11:48:07.796Z,1022.79
2016-10-11T11:49:07.870Z,1022.78
2016-10-11T11:50:07.844Z,1022.74
2016-10-11T11:51:07.860Z,1022.79
2016-10-11T11:52:07.880Z,1022.75
2016-10-11T11:53:07.901Z,1022.74
2016-10-11T11:54:07.921Z,1022.73
2016-10-11T11:55:07.950Z,1022.69
2016-10-11T11:56:07.974Z,1022.7
2016-10-11T11:57:07.985Z,1022.69
2016-10-11T11:58:08.004Z,1022.68
2016-10-11T11:59:08.030Z,1022.66
2016-10-11T12:00:08.051Z,1022.7
2016-10-11T12:01:08.071Z,1022.62
2016-10-11T12:02:08.087Z,1022.61
2016-10-11T12:03:08.110Z,1022.61
2016-10-11T12:04:08.132Z,1022.65
2016-10-11T12:05:08.148Z,1022.62
2016-10-11T12:06:08.182Z,1022.61
2016-10-11T12:07:08.292Z,1022.62
2016-10-11T12:08:08.218Z,1022.61
2016-10-11T12:09:08.232Z,1022.59